Time;durP1;ratioP1;P1;durP2;ratioP2;P2;SDS_P1;SDS_P2;PMS_P1;PMS_P2;Temp;Humidity;BMP_temperature;BMP_pressure;BME280_temperature;BME280_humidity;BME280_pressure;Samples;Min_cycle;Max_cycle;Signal;HPM_P1;HPM_P2
2022/12/09 00:02:07;;;;;;;;;;;;;;;5.54;100.00;99824.97;5078549;28;19946;-81
2022/12/09 00:04:34;;;;;;;;;;;;;;;5.58;100.00;99821.09;5079115;28;20041;-80
2022/12/09 00:06:59;;;;;;;;;;;;;;;5.58;100.00;99821.09;5078572;28;20027;-82
2022/12/09 00:09:25;;;;;;;;;;;;;;;5.56;100.00;99817.81;5079512;28;19963;-82
2022/12/09 00:11:51;;;;;;;;;;;;;;;5.57;100.00;99823.84;5078243;28;20403;-82
2022/12/09 00:14:17;;;;;;;;;;;;;;;5.63;100.00;99829.34;5077483;28;19920;-79
2022/12/09 00:16:42;;;;;;;;;;;;;;;5.71;100.00;99824.19;5076755;28;19916;-79
2022/12/09 00:19:08;;;;;;;;;;;;;;;5.58;100.00;99823.72;5077440;28;19920;-80
2022/12/09 00:21:34;;;;;;;;;;;;;;;5.60;100.00;99829.66;5076838;28;19928;-82
2022/12/09 00:24:01;;;;;;;;;;;;;;;5.69;100.00;99823.53;5076829;28;19985;-84
2022/12/09 00:26:27;;;;;;;;;;;;;;;5.72;100.00;99822.41;5076703;28;19981;-80
2022/12/09 00:28:53;;;;;;;;;;;;;;;5.64;100.00;99815.25;5075130;28;20394;-80
2022/12/09 00:31:20;;;;;;;;;;;;;;;5.60;100.00;99808.63;5074835;28;20014;-80
2022/12/09 00:33:46;;;;;;;;;;;;;;;5.48;100.00;99804.56;5078344;28;19932;-80
2022/12/09 00:36:13;;;;;;;;;;;;;;;5.54;100.00;99806.59;5077505;28;19925;-81
2022/12/09 00:38:38;;;;;;;;;;;;;;;5.46;100.00;99803.88;5078413;28;19920;-82
2022/12/09 00:41:04;;;;;;;;;;;;;;;5.58;100.00;99794.81;5076942;28;19990;-80
2022/12/09 00:43:30;;;;;;;;;;;;;;;5.42;100.00;99799.91;5077058;28;20297;-80
2022/12/09 00:45:55;;;;;;;;;;;;;;;5.56;100.00;99806.47;5076813;28;19917;-80
2022/12/09 00:48:21;;;;;;;;;;;;;;;5.77;100.00;99809.63;5076465;28;19923;-82
2022/12/09 00:50:46;;;;;;;;;;;;;;;5.91;100.00;99808.31;5076362;28;19921;-80
2022/12/09 00:53:12;;;;;;;;;;;;;;;5.61;100.00;99805.03;5078010;28;19977;-83
2022/12/09 00:55:38;;;;;;;;;;;;;;;5.57;100.00;99815.97;5077034;28;19970;-80
2022/12/09 00:58:03;;;;;;;;;;;;;;;5.64;100.00;99815.25;5077976;28;19921;-82
2022/12/09 01:00:29;;;;;;;;;;;;;;;5.59;100.00;99807.00;5076174;28;20012;-82
2022/12/09 01:02:56;;;;;;;;;;;;;;;5.72;100.00;99809.25;5077106;28;20107;-80
2022/12/09 01:05:21;;;;;;;;;;;;;;;5.63;100.00;99808.31;5076894;28;19917;-82
2022/12/09 01:07:47;;;;;;;;;;;;;;;5.77;100.00;99803.56;5075765;28;20282;-80
2022/12/09 01:10:12;;;;;;;;;;;;;;;5.62;100.00;99805.84;5076101;28;19929;-81
2022/12/09 01:12:38;;;;;;;;;;;;;;;5.69;100.00;99802.50;5076655;28;19916;-80
2022/12/09 01:15:06;;;;;;;;;;;;;;;5.72;100.00;99791.69;5078565;28;20334;-81
2022/12/09 01:17:31;;;;;;;;;;;;;;;5.57;100.00;99781.81;5076988;28;19917;-79
2022/12/09 01:19:56;;;;;;;;;;;;;;;5.47;100.00;99795.00;5077313;28;20290;-79
2022/12/09 01:22:22;;;;;;;;;;;;;;;5.47;100.00;99787.13;5078700;28;19980;-78
2022/12/09 01:24:47;;;;;;;;;;;;;;;5.69;100.00;99781.47;5087515;28;19896;-80
2022/12/09 01:27:13;;;;;;;;;;;;;;;5.81;100.00;99784.69;5083017;28;19920;-81
2022/12/09 01:29:39;;;;;;;;;;;;;;;5.79;100.00;99785.81;5074377;28;19920;-79
2022/12/09 01:32:04;;;;;;;;;;;;;;;5.66;100.00;99780.94;5073775;28;20266;-82
2022/12/09 01:34:30;;;;;;;;;;;;;;;6.08;100.00;99781.19;5073654;28;19924;-80
2022/12/09 01:36:55;;;;;;;;;;;;;;;5.73;100.00;99774.91;5075011;28;19966;-80
2022/12/09 01:39:21;;;;;;;;;;;;;;;5.69;100.00;99776.22;5073889;28;19974;-82
2022/12/09 01:41:50;;;;;;;;;;;;;;;5.68;100.00;99777.19;5073275;28;20339;-82
2022/12/09 01:44:17;;;;;;;;;;;;;;;5.76;100.00;99776.44;5074785;28;20396;-78
2022/12/09 01:46:43;;;;;;;;;;;;;;;5.51;100.00;99772.72;5074538;28;19920;-81
2022/12/09 01:49:10;;;;;;;;;;;;;;;5.54;100.00;99761.91;5074523;28;19920;-82
2022/12/09 01:51:36;;;;;;;;;;;;;;;5.61;100.00;99768.22;5074597;28;19989;-79
2022/12/09 01:54:02;;;;;;;;;;;;;;;5.42;100.00;99767.53;5074417;28;20424;-83
2022/12/09 01:56:28;;;;;;;;;;;;;;;5.45;100.00;99759.34;5073382;28;19943;-82
2022/12/09 01:59:00;;;;;;;;;;;;;;;5.30;100.00;99748.53;5072952;28;19921;-80
2022/12/09 02:01:25;;;;;;;;;;;;;;;5.38;100.00;99756.47;5056335;28;19920;-81
2022/12/09 02:03:50;;;;;;;;;;;;;;;5.33;100.00;99768.41;5073447;28;20408;-82
2022/12/09 02:06:16;;;;;;;;;;;;;;;5.30;100.00;99769.56;5073383;28;19913;-80
2022/12/09 02:08:44;;;;;;;;;;;;;;;5.25;100.00;99756.00;5072776;28;20015;-83
2022/12/09 02:11:29;;;;;;;;;;;;;;;5.50;100.00;99754.50;5072639;28;19921;-81
2022/12/09 02:14:05;;;;;;;;;;;;;;;5.41;100.00;99761.44;5069884;28;20360;-82
2022/12/09 02:16:36;;;;;;;;;;;;;;;5.23;100.00;99750.09;5072466;28;19920;-80
2022/12/09 02:19:09;;;;;;;;;;;;;;;5.21;100.00;99755.47;5072412;28;20335;-81
2022/12/09 02:21:36;;;;;;;;;;;;;;;5.43;100.00;99750.81;5073748;28;20331;-79
2022/12/09 02:24:07;;;;;;;;;;;;;;;5.29;100.00;99746.88;5072430;28;20349;-81
2022/12/09 02:26:39;;;;;;;;;;;;;;;5.42;100.00;99731.56;5072309;28;19920;-80
2022/12/09 02:29:08;;;;;;;;;;;;;;;5.33;100.00;99732.47;5072470;28;19921;-80
2022/12/09 02:31:54;;;;;;;;;;;;;;;5.48;100.00;99736.22;5053786;28;20015;-81
2022/12/09 02:34:20;;;;;;;;;;;;;;;5.38;100.00;99724.97;5052354;28;19960;-80
2022/12/09 02:36:52;;;;;;;;;;;;;;;5.43;100.00;99733.25;5052368;28;19924;-80
2022/12/09 02:39:21;;;;;;;;;;;;;;;5.08;100.00;99730.53;5052207;28;20015;-83
2022/12/09 02:41:48;;;;;;;;;;;;;;;5.09;100.00;99713.81;5052445;28;19960;-81
2022/12/09 02:44:16;;;;;;;;;;;;;;;5.19;100.00;99704.91;5052211;28;19924;-80
2022/12/09 02:46:42;;;;;;;;;;;;;;;5.20;100.00;99700.47;5052118;28;19928;-84
2022/12/09 02:49:10;;;;;;;;;;;;;;;5.23;100.00;99694.94;5052352;28;20011;-82
2022/12/09 02:51:40;;;;;;;;;;;;;;;5.24;100.00;99677.38;5052247;28;20366;-82
2022/12/09 02:54:16;;;;;;;;;;;;;;;5.38;100.00;99671.56;5052266;28;19920;-82
2022/12/09 02:56:45;;;;;;;;;;;;;;;5.56;100.00;99668.00;5052108;28;20423;-81
2022/12/09 02:59:11;;;;;;;;;;;;;;;5.57;100.00;99661.75;5053655;28;19921;-82
2022/12/09 03:01:36;;;;;;;;;;;;;;;5.46;100.00;99653.28;5051625;28;19943;-81
2022/12/09 03:04:03;;;;;;;;;;;;;;;5.26;100.00;99649.97;5053016;28;19921;-82
2022/12/09 03:06:40;;;;;;;;;;;;;;;5.57;100.00;99651.22;5053016;28;19921;-82
2022/12/09 03:09:09;;;;;;;;;;;;;;;5.52;100.00;99637.72;5054430;28;19920;-81
2022/12/09 03:11:36;;;;;;;;;;;;;;;5.66;100.00;99633.75;5053607;28;19921;-85
2022/12/09 03:14:02;;;;;;;;;;;;;;;5.55;100.00;99628.72;5053878;28;20417;-81
2022/12/09 03:16:48;;;;;;;;;;;;;;;5.59;100.00;99616.91;5053836;28;19975;-80
2022/12/09 03:19:26;;;;;;;;;;;;;;;5.68;100.00;99611.56;5053172;28;19921;-81
2022/12/09 03:21:53;;;;;;;;;;;;;;;5.28;100.00;99603.34;5052033;28;19931;-80
2022/12/09 03:24:21;;;;;;;;;;;;;;;5.21;100.00;99607.56;5053004;28;19924;-82
2022/12/09 03:26:47;;;;;;;;;;;;;;;5.28;100.00;99598.09;5051892;28;20373;-82
2022/12/09 03:29:16;;;;;;;;;;;;;;;5.32;100.00;99594.19;5053031;28;19928;-81
2022/12/09 03:31:41;;;;;;;;;;;;;;;5.07;100.00;99594.97;5035099;28;20376;-80
2022/12/09 03:34:08;;;;;;;;;;;;;;;5.06;100.00;99593.31;5053279;28;19925;-81
2022/12/09 03:36:37;;;;;;;;;;;;;;;5.19;100.00;99591.13;5053376;28;20382;-84
2022/12/09 03:39:04;;;;;;;;;;;;;;;5.21;100.00;99597.03;5053914;28;19927;-81
2022/12/09 03:41:31;;;;;;;;;;;;;;;5.30;100.00;99590.91;5062481;28;19988;-80
2022/12/09 03:44:00;;;;;;;;;;;;;;;5.02;100.00;99581.44;5068017;28;20015;-82
2022/12/09 03:46:27;;;;;;;;;;;;;;;5.20;100.00;99569.16;5064553;28;19917;-82
2022/12/09 03:48:52;;;;;;;;;;;;;;;5.47;100.00;99566.38;5059432;28;20389;-82
2022/12/09 03:51:23;;;;;;;;;;;;;;;5.21;100.00;99565.53;5053883;28;19928;-81
2022/12/09 03:54:07;;;;;;;;;;;;;;;5.03;100.00;99567.34;5053042;28;20289;-83
2022/12/09 03:56:37;;;;;;;;;;;;;;;5.21;100.00;99565.53;5052845;28;20374;-81
2022/12/09 03:59:08;;;;;;;;;;;;;;;5.16;100.00;99563.38;5052834;28;20011;-82
2022/12/09 04:01:34;;;;;;;;;;;;;;;5.11;100.00;99556.91;5052854;28;20024;-82
2022/12/09 04:03:59;;;;;;;;;;;;;;;5.24;100.00;99549.47;5052795;28;19956;-82
2022/12/09 04:06:25;;;;;;;;;;;;;;;5.25;100.00;99545.03;5053710;28;19970;-82
2022/12/09 04:08:50;;;;;;;;;;;;;;;5.49;100.00;99547.84;5054886;28;19924;-82
2022/12/09 04:11:16;;;;;;;;;;;;;;;5.20;100.00;99542.88;5055366;28;19917;-81
2022/12/09 04:13:41;;;;;;;;;;;;;;;5.29;100.00;99541.13;5056529;28;19925;-83
2022/12/09 04:16:08;;;;;;;;;;;;;;;5.35;100.00;99533.47;5057136;28;20019;-81
2022/12/09 04:18:33;;;;;;;;;;;;;;;5.33;100.00;99547.75;5054503;28;19928;-81
2022/12/09 04:20:59;;;;;;;;;;;;;;;5.32;100.00;99546.91;5036816;28;19933;-81
2022/12/09 04:23:24;;;;;;;;;;;;;;;5.31;100.00;99552.31;5054738;28;19917;-80
2022/12/09 04:25:49;;;;;;;;;;;;;;;5.23;100.00;99545.19;5063382;28;19921;-81
2022/12/09 04:28:15;;;;;;;;;;;;;;;5.24;100.00;99544.22;5057506;28;20290;-83
2022/12/09 04:30:47;;;;;;;;;;;;;;;5.19;100.00;99535.97;5057051;28;19974;-81
2022/12/09 04:33:13;;;;;;;;;;;;;;;5.27;100.00;99533.38;5057568;28;20324;-82
2022/12/09 04:35:38;;;;;;;;;;;;;;;5.36;100.00;99534.28;5057546;28;19920;-83
2022/12/09 04:38:03;;;;;;;;;;;;;;;5.16;100.00;99537.09;5057641;28;19924;-80
2022/12/09 04:40:29;;;;;;;;;;;;;;;5.44;100.00;99534.34;5058073;28;20282;-82
2022/12/09 04:42:54;;;;;;;;;;;;;;;5.48;100.00;99540.94;5057839;28;19947;-81
2022/12/09 04:45:20;;;;;;;;;;;;;;;5.39;100.00;99536.63;5056314;28;19932;-82
2022/12/09 04:47:45;;;;;;;;;;;;;;;5.43;100.00;99528.28;5055869;28;19924;-81
2022/12/09 04:50:10;;;;;;;;;;;;;;;5.37;100.00;99523.63;5057370;28;20390;-83
2022/12/09 04:52:36;;;;;;;;;;;;;;;5.69;100.00;99513.34;5057115;28;20271;-79
2022/12/09 04:55:01;;;;;;;;;;;;;;;5.46;100.00;99504.31;5056260;28;20003;-83
2022/12/09 04:57:28;;;;;;;;;;;;;;;5.41;100.00;99503.94;5056535;28;19995;-81
2022/12/09 04:59:54;;;;;;;;;;;;;;;5.42;100.00;99502.97;5057001;28;19920;-83
2022/12/09 05:02:19;;;;;;;;;;;;;;;5.50;100.00;99502.22;5056127;28;19931;-81
2022/12/09 05:04:45;;;;;;;;;;;;;;;5.45;100.00;99502.66;5075065;28;19928;-81
2022/12/09 05:07:11;;;;;;;;;;;;;;;5.57;100.00;99490.06;5076229;28;19927;-81
2022/12/09 05:09:37;;;;;;;;;;;;;;;5.64;100.00;99483.22;5075938;28;19920;-82
2022/12/09 05:12:02;;;;;;;;;;;;;;;5.42;100.00;99478.50;5075742;28;20369;-80
2022/12/09 05:14:27;;;;;;;;;;;;;;;5.25;100.00;99472.31;5076090;28;19958;-81
2022/12/09 05:16:53;;;;;;;;;;;;;;;5.45;100.00;99465.88;5075373;28;19927;-80
2022/12/09 05:19:18;;;;;;;;;;;;;;;5.48;100.00;99467.38;5082801;28;19919;-82
2022/12/09 05:21:44;;;;;;;;;;;;;;;5.53;100.00;99460.69;5075967;28;19928;-81
2022/12/09 05:24:10;;;;;;;;;;;;;;;5.28;100.00;99466.75;5079197;28;19920;-81
2022/12/09 05:26:36;;;;;;;;;;;;;;;5.37;100.00;99463.19;5075494;28;19992;-82
2022/12/09 05:29:01;;;;;;;;;;;;;;;5.60;100.00;99456.44;5060702;28;19928;-81
2022/12/09 05:31:27;;;;;;;;;;;;;;;5.60;100.00;99455.63;5055015;28;19975;-82
2022/12/09 05:33:52;;;;;;;;;;;;;;;5.22;100.00;99449.81;5068665;28;19971;-84
2022/12/09 05:36:19;;;;;;;;;;;;;;;5.47;100.00;99442.09;5076190;28;19917;-81
2022/12/09 05:38:46;;;;;;;;;;;;;;;5.42;100.00;99441.72;5073892;28;19920;-81
2022/12/09 05:41:11;;;;;;;;;;;;;;;5.59;100.00;99448.72;5081119;28;19921;-82
2022/12/09 05:43:37;;;;;;;;;;;;;;;5.37;100.00;99439.53;5079785;28;20317;-79
2022/12/09 05:46:02;;;;;;;;;;;;;;;5.49;100.00;99437.50;5059946;28;19921;-81
2022/12/09 05:48:28;;;;;;;;;;;;;;;5.51;100.00;99435.53;5055238;28;19923;-79
2022/12/09 05:50:57;;;;;;;;;;;;;;;5.34;100.00;99431.97;5055555;28;19943;-80
2022/12/09 05:53:23;;;;;;;;;;;;;;;5.38;100.00;99422.81;5055628;28;19927;-79
2022/12/09 05:55:48;;;;;;;;;;;;;;;5.42;100.00;99425.94;5066569;28;19925;-89
2022/12/09 05:58:14;;;;;;;;;;;;;;;5.61;100.00;99426.53;5075581;28;19920;-86
2022/12/09 06:00:40;;;;;;;;;;;;;;;5.23;100.00;99437.50;5075858;28;19920;-84
2022/12/09 06:03:06;;;;;;;;;;;;;;;5.22;100.00;99438.47;5074741;28;19932;-81
2022/12/09 06:05:31;;;;;;;;;;;;;;;5.31;100.00;99427.03;5072265;28;19921;-83
2022/12/09 06:07:57;;;;;;;;;;;;;;;5.22;100.00;99420.09;5088564;28;19928;-84
2022/12/09 06:10:22;;;;;;;;;;;;;;;5.44;100.00;99416.94;5074341;28;19961;-80
2022/12/09 06:12:48;;;;;;;;;;;;;;;5.71;100.00;99410.66;5073857;28;19925;-80
2022/12/09 06:15:13;;;;;;;;;;;;;;;5.54;100.00;99404.50;5073730;28;20010;-81
2022/12/09 06:17:39;;;;;;;;;;;;;;;5.51;100.00;99407.44;5073015;28;19927;-79
2022/12/09 06:20:04;;;;;;;;;;;;;;;5.44;100.00;99408.22;5074107;28;19920;-83
2022/12/09 06:22:30;;;;;;;;;;;;;;;5.50;100.00;99403.16;5073840;28;19935;-82
2022/12/09 06:24:55;;;;;;;;;;;;;;;5.84;100.00;99411.03;5072981;28;20320;-81
2022/12/09 06:27:20;;;;;;;;;;;;;;;5.82;100.00;99410.38;5073831;28;19921;-84
2022/12/09 06:29:46;;;;;;;;;;;;;;;5.60;100.00;99398.59;5066275;28;19916;-80
2022/12/09 06:32:11;;;;;;;;;;;;;;;5.64;100.00;99399.13;5064872;28;19963;-82
2022/12/09 06:34:37;;;;;;;;;;;;;;;5.63;100.00;99393.03;5064019;28;20364;-82
2022/12/09 06:37:03;;;;;;;;;;;;;;;5.74;100.00;99394.56;5062530;28;19927;-82
2022/12/09 06:39:28;;;;;;;;;;;;;;;5.36;100.00;99411.66;5062747;28;19925;-80
2022/12/09 06:41:54;;;;;;;;;;;;;;;5.24;100.00;99423.38;5062862;28;20104;-84
2022/12/09 06:44:19;;;;;;;;;;;;;;;5.33;100.00;99413.75;5061268;28;19916;-83
2022/12/09 06:46:44;;;;;;;;;;;;;;;5.23;100.00;99395.50;5055006;28;19921;-83
2022/12/09 06:49:10;;;;;;;;;;;;;;;5.25;100.00;99377.75;5053992;28;19943;-83
2022/12/09 06:51:35;;;;;;;;;;;;;;;5.12;100.00;99378.19;5054150;28;19921;-82
2022/12/09 06:54:00;;;;;;;;;;;;;;;5.08;100.00;99376.00;5062248;28;19928;-81
2022/12/09 06:56:26;;;;;;;;;;;;;;;5.08;100.00;99365.50;5059764;28;19978;-83
2022/12/09 06:58:51;;;;;;;;;;;;;;;4.99;100.00;99361.19;5057508;28;19920;-80
2022/12/09 07:01:18;;;;;;;;;;;;;;;5.15;100.00;99358.66;5053063;28;19956;-81
2022/12/09 07:03:45;;;;;;;;;;;;;;;5.18;100.00;99347.84;5051875;28;19925;-82
2022/12/09 07:06:17;;;;;;;;;;;;;;;4.96;100.00;99345.75;5063554;28;19920;-81
2022/12/09 07:08:43;;;;;;;;;;;;;;;5.05;100.00;99344.81;5062724;28;19927;-83
2022/12/09 07:11:08;;;;;;;;;;;;;;;5.02;100.00;99355.63;5058611;28;19925;-82
2022/12/09 07:13:34;;;;;;;;;;;;;;;5.07;100.00;99358.63;5053387;28;20012;-82
2022/12/09 07:15:59;;;;;;;;;;;;;;;5.20;100.00;99359.03;5052884;28;19999;-80
2022/12/09 07:18:25;;;;;;;;;;;;;;;5.25;100.00;99361.16;5053427;28;19976;-81
2022/12/09 07:20:50;;;;;;;;;;;;;;;5.40;100.00;99364.88;5053587;28;19924;-81
2022/12/09 07:23:15;;;;;;;;;;;;;;;5.41;100.00;99362.06;5053364;28;19921;-79
2022/12/09 07:25:41;;;;;;;;;;;;;;;5.38;100.00;99341.38;5053472;28;19921;-84
2022/12/09 07:28:06;;;;;;;;;;;;;;;5.39;100.00;99337.78;5053342;28;20400;-84
2022/12/09 07:30:31;;;;;;;;;;;;;;;5.35;100.00;99336.44;5053690;28;19923;-83
2022/12/09 07:32:57;;;;;;;;;;;;;;;5.28;100.00;99340.66;5055162;28;19932;-84
2022/12/09 07:35:22;;;;;;;;;;;;;;;5.34;100.00;99347.91;5056813;28;20334;-80
2022/12/09 07:37:47;;;;;;;;;;;;;;;5.14;100.00;99365.72;5053591;28;19925;-83
2022/12/09 07:40:13;;;;;;;;;;;;;;;5.29;100.00;99371.22;5063503;28;20297;-82
2022/12/09 07:42:38;;;;;;;;;;;;;;;5.25;100.00;99362.00;5074805;28;19973;-84
2022/12/09 07:45:04;;;;;;;;;;;;;;;5.59;100.00;99375.97;5074933;28;19917;-84
2022/12/09 07:47:29;;;;;;;;;;;;;;;5.58;100.00;99395.31;5073986;28;20007;-83
2022/12/09 07:49:54;;;;;;;;;;;;;;;5.67;100.00;99389.13;5073710;28;19920;-86
2022/12/09 07:52:20;;;;;;;;;;;;;;;5.55;100.00;99373.78;5073864;28;20411;-81
2022/12/09 07:54:45;;;;;;;;;;;;;;;5.42;100.00;99362.91;5076238;28;19928;-86
2022/12/09 07:57:11;;;;;;;;;;;;;;;5.56;100.00;99347.38;5075022;28;20305;-82
2022/12/09 07:59:36;;;;;;;;;;;;;;;5.36;100.00;99353.03;5074676;28;19920;-86
2022/12/09 08:02:06;;;;;;;;;;;;;;;5.28;100.00;99345.91;5069551;28;20361;-82
2022/12/09 08:04:33;;;;;;;;;;;;;;;5.31;100.00;99334.25;5076969;28;20421;-85
2022/12/09 08:06:59;;;;;;;;;;;;;;;5.24;100.00;99326.19;5077940;28;19921;-85
2022/12/09 08:09:24;;;;;;;;;;;;;;;5.18;100.00;99314.53;5077607;28;20385;-85
2022/12/09 08:11:50;;;;;;;;;;;;;;;5.25;100.00;99314.72;5077679;28;19925;-85
2022/12/09 08:14:15;;;;;;;;;;;;;;;5.18;100.00;99322.41;5071971;28;20262;-83
2022/12/09 08:16:41;;;;;;;;;;;;;;;5.29;100.00;99331.81;5075585;28;19966;-82
2022/12/09 08:19:07;;;;;;;;;;;;;;;5.42;100.00;99323.50;5065205;28;19927;-82
2022/12/09 08:21:32;;;;;;;;;;;;;;;5.59;100.00;99328.66;5055662;28;19916;-81
2022/12/09 08:23:59;;;;;;;;;;;;;;;5.57;100.00;99333.22;5057297;28;19925;-82
2022/12/09 08:26:26;;;;;;;;;;;;;;;5.73;100.00;99335.09;5043488;28;19912;-82
2022/12/09 08:28:51;;;;;;;;;;;;;;;5.68;100.00;99345.25;5063862;28;19921;-84
2022/12/09 08:31:18;;;;;;;;;;;;;;;5.66;100.00;99350.69;5056927;28;20321;-81
2022/12/09 08:33:44;;;;;;;;;;;;;;;5.62;100.00;99364.28;5057177;28;19924;-82
2022/12/09 08:36:12;;;;;;;;;;;;;;;5.66;100.00;99363.84;5057630;28;19974;-83
2022/12/09 08:38:37;;;;;;;;;;;;;;;5.75;100.00;99369.94;5067670;28;20286;-85
2022/12/09 08:41:14;;;;;;;;;;;;;;;6.05;100.00;99373.81;5076636;28;19921;-81
2022/12/09 08:43:40;;;;;;;;;;;;;;;6.06;100.00;99378.09;5076407;28;19928;-84
2022/12/09 08:46:06;;;;;;;;;;;;;;;6.08;100.00;99381.38;5074229;28;19925;-83
2022/12/09 08:48:32;;;;;;;;;;;;;;;6.04;100.00;99382.69;5067361;28;19920;-83
2022/12/09 08:50:58;;;;;;;;;;;;;;;6.12;100.00;99395.88;5066879;28;19920;-85
2022/12/09 08:53:23;;;;;;;;;;;;;;;6.06;100.00;99391.25;5070033;28;19974;-83
2022/12/09 08:55:48;;;;;;;;;;;;;;;5.87;100.00;99368.66;5064245;28;20419;-81
2022/12/09 08:58:14;;;;;;;;;;;;;;;5.86;100.00;99376.72;5073570;28;19920;-84
2022/12/09 09:00:39;;;;;;;;;;;;;;;5.95;100.00;99376.59;5076203;28;19921;-83
2022/12/09 09:03:04;;;;;;;;;;;;;;;5.87;100.00;99378.34;5067301;28;20279;-81
2022/12/09 09:05:30;;;;;;;;;;;;;;;5.80;100.00;99377.34;5070240;28;20471;-81
2022/12/09 09:07:55;;;;;;;;;;;;;;;5.76;100.00;99362.88;5067637;28;19921;-80
2022/12/09 09:10:20;;;;;;;;;;;;;;;5.71;100.00;99364.16;5064303;28;19921;-82
2022/12/09 09:12:46;;;;;;;;;;;;;;;5.77;100.00;99356.63;5069710;28;19984;-83
2022/12/09 09:15:11;;;;;;;;;;;;;;;5.69;100.00;99357.44;5065492;28;20288;-82
2022/12/09 09:17:37;;;;;;;;;;;;;;;5.67;100.00;99360.19;5065435;28;19927;-82
2022/12/09 09:20:02;;;;;;;;;;;;;;;5.56;100.00;99365.75;5069434;28;19964;-83
2022/12/09 09:22:28;;;;;;;;;;;;;;;5.62;100.00;99359.88;5064355;28;19997;-84
2022/12/09 09:24:54;;;;;;;;;;;;;;;5.53;100.00;99345.06;5064627;28;19921;-82
2022/12/09 09:27:20;;;;;;;;;;;;;;;5.54;100.00;99336.19;5066454;28;19921;-82
2022/12/09 09:29:45;;;;;;;;;;;;;;;5.42;100.00;99332.19;5068139;28;19994;-82
2022/12/09 09:32:10;;;;;;;;;;;;;;;5.47;100.00;99329.09;5074288;28;19932;-82
2022/12/09 09:34:36;;;;;;;;;;;;;;;5.56;100.00;99323.72;5061035;28;19978;-83
2022/12/09 09:37:01;;;;;;;;;;;;;;;5.43;100.00;99319.88;5063691;28;19913;-83
2022/12/09 09:39:27;;;;;;;;;;;;;;;5.58;100.00;99327.00;5056761;28;19932;-82
2022/12/09 09:41:54;;;;;;;;;;;;;;;5.80;100.00;99314.25;5055382;28;20007;-81
2022/12/09 09:44:41;;;;;;;;;;;;;;;5.89;100.00;99327.28;5058467;28;20015;-81
2022/12/09 09:47:25;;;;;;;;;;;;;;;5.82;100.00;99309.66;5074199;28;20014;-82
2022/12/09 09:49:57;;;;;;;;;;;;;;;6.19;100.00;99310.06;5075052;28;19946;-82
2022/12/09 09:52:24;;;;;;;;;;;;;;;5.81;100.00;99297.47;5074869;28;19920;-80
2022/12/09 09:54:50;;;;;;;;;;;;;;;5.90;100.00;99291.31;5075092;28;19968;-83
2022/12/09 09:57:21;;;;;;;;;;;;;;;5.94;100.00;99282.06;5077139;28;20340;-81
2022/12/09 09:59:49;;;;;;;;;;;;;;;6.06;100.00;99273.72;5082036;28;19920;-84
2022/12/09 10:02:17;;;;;;;;;;;;;;;5.94;100.00;99263.66;5080902;28;19925;-83
2022/12/09 10:04:51;;;;;;;;;;;;;;;5.78;100.00;99268.88;5073922;28;19927;-83
2022/12/09 10:07:19;;;;;;;;;;;;;;;6.15;100.00;99278.00;5073808;28;19974;-84
2022/12/09 10:09:54;;;;;;;;;;;;;;;5.90;100.00;99268.44;5074650;28;19925;-83
2022/12/09 10:12:23;;;;;;;;;;;;;;;5.90;100.00;99262.38;5057447;28;19920;-82
2022/12/09 10:15:08;;;;;;;;;;;;;;;6.05;100.00;99266.00;5075011;28;19924;-84
2022/12/09 10:17:34;;;;;;;;;;;;;;;6.03;100.00;99239.84;5074734;28;19946;-84
2022/12/09 10:20:13;;;;;;;;;;;;;;;6.07;100.00;99251.69;5074628;28;19924;-83
2022/12/09 10:22:48;;;;;;;;;;;;;;;6.03;100.00;99258.25;5074940;28;19955;-85
2022/12/09 10:25:16;;;;;;;;;;;;;;;6.00;100.00;99263.03;5073864;28;19928;-85
2022/12/09 10:27:49;;;;;;;;;;;;;;;6.17;100.00;99247.06;5074279;28;19917;-82
2022/12/09 10:30:16;;;;;;;;;;;;;;;5.97;100.00;99242.31;5074837;28;20284;-87
2022/12/09 10:32:42;;;;;;;;;;;;;;;6.19;100.00;99229.34;5073839;28;19970;-85
2022/12/09 10:35:15;;;;;;;;;;;;;;;6.07;100.00;99206.16;5075098;28;19920;-85
2022/12/09 10:37:41;;;;;;;;;;;;;;;6.10;100.00;99208.44;5075725;28;19924;-87
2022/12/09 10:40:06;;;;;;;;;;;;;;;6.22;100.00;99218.47;5076485;28;19920;-87
2022/12/09 10:45:49;;;;;;;;;;;;;;;6.08;100.00;99208.63;5073169;28;19921;-85
2022/12/09 10:48:26;;;;;;;;;;;;;;;6.23;100.00;99225.38;5056336;28;19929;-86
2022/12/09 10:50:56;;;;;;;;;;;;;;;6.18;100.00;99226.88;5058255;28;20438;-87
2022/12/09 10:53:22;;;;;;;;;;;;;;;6.33;100.00;99214.66;5075478;28;19924;-87
2022/12/09 10:55:49;;;;;;;;;;;;;;;6.40;100.00;99202.47;5074496;28;20005;-85
2022/12/09 10:58:14;;;;;;;;;;;;;;;6.02;100.00;99203.19;5073266;28;19952;-83
2022/12/09 11:00:56;;;;;;;;;;;;;;;6.10;100.00;99195.28;5067825;28;19921;-83
2022/12/09 11:03:26;;;;;;;;;;;;;;;6.15;100.00;99195.63;5066271;28;19936;-83
2022/12/09 11:05:54;;;;;;;;;;;;;;;6.12;100.00;99186.28;5062723;28;19920;-80
2022/12/09 11:08:22;;;;;;;;;;;;;;;6.14;100.00;99175.56;5073086;28;20373;-81
2022/12/09 11:13:36;;;;;;;;;;;;;;;6.00;100.00;99144.72;5344092;22;20016;-81
2022/12/09 11:16:03;;;;;;;;;;;;;;;6.23;100.00;99164.06;5025548;28;19975;-85
2022/12/09 11:18:31;;;;;;;;;;;;;;;6.05;100.00;99164.25;5006386;28;20449;-91
2022/12/09 11:21:01;;;;;;;;;;;;;;;6.13;100.00;99147.63;5034406;28;19928;-83
2022/12/09 11:23:27;;;;;;;;;;;;;;;6.16;100.00;99139.41;5043002;28;20008;-82
2022/12/09 11:25:55;;;;;;;;;;;;;;;6.28;100.00;99167.00;5021884;28;20051;-84
2022/12/09 11:28:25;;;;;;;;;;;;;;;6.01;100.00;99183.16;5040526;28;19921;-82
2022/12/09 11:30:50;;;;;;;;;;;;;;;5.81;100.00;99176.53;5025334;28;20013;-88
2022/12/09 11:33:28;;;;;;;;;;;;;;;5.78;100.00;99153.22;5025702;28;19936;-84
2022/12/09 11:35:56;;;;;;;;;;;;;;;5.87;100.00;99141.72;5039932;28;19979;-83
2022/12/09 11:38:31;;;;;;;;;;;;;;;5.96;100.00;99141.59;5050507;28;19917;-84
2022/12/09 11:40:59;;;;;;;;;;;;;;;5.96;100.00;99140.75;5050869;28;20361;-82
2022/12/09 11:43:54;;;;;;;;;;;;;;;5.97;100.00;99142.38;5035651;28;19929;-89
2022/12/09 11:46:27;;;;;;;;;;;;;;;6.00;100.00;99115.78;4947479;29;19933;-81
2022/12/09 11:48:55;;;;;;;;;;;;;;;6.19;100.00;99112.78;4936553;29;19927;-84
2022/12/09 11:51:23;;;;;;;;;;;;;;;6.29;100.00;99131.81;4951393;29;20451;-89
2022/12/09 11:53:50;;;;;;;;;;;;;;;6.24;100.00;99139.38;4946775;29;19927;-86
2022/12/09 11:56:19;;;;;;;;;;;;;;;6.26;100.00;99118.19;4952667;28;20285;-86
2022/12/09 11:58:49;;;;;;;;;;;;;;;6.36;100.00;99110.91;5044295;28;19921;-87
2022/12/09 12:01:26;;;;;;;;;;;;;;;6.30;100.00;99122.13;5044850;28;20369;-83
2022/12/09 12:03:55;;;;;;;;;;;;;;;6.21;100.00;99119.50;5037986;28;19948;-88
2022/12/09 12:06:30;;;;;;;;;;;;;;;6.34;100.00;99118.97;5034053;28;19929;-84
2022/12/09 12:09:01;;;;;;;;;;;;;;;6.20;100.00;99102.06;5027195;28;19921;-85
2022/12/09 12:11:30;;;;;;;;;;;;;;;6.20;100.00;99085.44;5048754;28;19921;-87
2022/12/09 12:14:00;;;;;;;;;;;;;;;6.04;100.00;99080.25;4991339;28;19932;-87
2022/12/09 12:16:30;;;;;;;;;;;;;;;6.22;100.00;99079.06;5026225;28;20581;-90
2022/12/09 12:19:01;;;;;;;;;;;;;;;6.38;100.00;99093.97;5032544;28;19975;-85
2022/12/09 12:21:33;;;;;;;;;;;;;;;6.25;100.00;99098.94;5047021;28;19921;-87
2022/12/09 12:24:19;;;;;;;;;;;;;;;5.97;100.00;99098.50;5038001;28;20522;-86
2022/12/09 12:26:51;;;;;;;;;;;;;;;5.85;100.00;99068.28;5040329;28;19920;-87
2022/12/09 12:29:23;;;;;;;;;;;;;;;5.77;100.00;99063.00;5036380;28;20365;-87
2022/12/09 12:32:07;;;;;;;;;;;;;;;5.75;100.00;99067.63;5004253;28;20463;-87
2022/12/09 12:34:32;;;;;;;;;;;;;;;5.87;100.00;99089.16;5011426;28;19921;-86
2022/12/09 12:37:12;;;;;;;;;;;;;;;5.91;100.00;99082.56;5018058;28;19979;-83
2022/12/09 12:39:50;;;;;;;;;;;;;;;5.88;100.00;99089.00;5015749;28;19941;-87
2022/12/09 12:42:23;;;;;;;;;;;;;;;5.78;100.00;99079.63;5016900;28;19925;-86
2022/12/09 12:47:53;;;;;;;;;;;;;;;5.67;100.00;99059.75;5040938;28;19967;-87
2022/12/09 12:50:18;;;;;;;;;;;;;;;5.84;100.00;99060.53;5022332;28;20027;-90
2022/12/09 12:52:56;;;;;;;;;;;;;;;5.61;100.00;99047.28;5038432;28;19968;-83
2022/12/09 12:55:21;;;;;;;;;;;;;;;5.70;100.00;99065.50;5038157;28;19921;-88
2022/12/09 12:57:57;;;;;;;;;;;;;;;5.48;100.00;99047.78;5032028;28;19928;-88
2022/12/09 13:00:25;;;;;;;;;;;;;;;5.90;100.00;99038.88;5018967;28;19921;-89